Time;durP1;ratioP1;P1;durP2;ratioP2;P2;SDS_P1;SDS_P2;PMS_P1;PMS_P2;Temp;Humidity;BMP_temperature;BMP_pressure;BME280_temperature;BME280_humidity;BME280_pressure;Samples;Min_cycle;Max_cycle;Signal;HPM_P1;HPM_P2
2022/11/03 00:01:45;;;;;;;;;13.50;13.50;;;;;12.12;88.99;99718.16;5033163;28;45472;-84
2022/11/03 00:04:21;;;;;;;;;14.75;14.00;;;;;12.11;89.14;99713.81;5036695;28;45442;-85
2022/11/03 00:06:49;;;;;;;;;16.00;14.00;;;;;12.12;88.97;99712.88;5030097;28;45562;-84
2022/11/03 00:09:15;;;;;;;;;0.00;0.00;;;;;12.11;89.08;99714.66;5024222;28;45414;-85
2022/11/03 00:11:42;;;;;;;;;12.00;10.25;;;;;12.10;89.21;99720.88;5034350;28;47943;-85
2022/11/03 00:14:09;;;;;;;;;17.50;16.25;;;;;12.09;89.27;99720.91;5042155;28;45312;-85
2022/11/03 00:16:36;;;;;;;;;18.25;14.50;;;;;12.07;89.30;99717.47;5049902;28;45398;-85
2022/11/03 00:19:01;;;;;;;;;14.25;13.00;;;;;12.05;89.16;99708.75;5024277;28;45525;-85
2022/11/03 00:21:27;;;;;;;;;15.75;15.75;;;;;12.03;89.35;99707.94;5036012;28;45801;-85
2022/11/03 00:23:53;;;;;;;;;14.75;14.75;;;;;12.02;89.38;99712.38;5031085;28;45350;-85
2022/11/03 00:26:21;;;;;;;;;17.00;14.75;;;;;12.01;89.24;99712.44;5030064;28;45186;-85
2022/11/03 00:28:55;;;;;;;;;16.75;16.00;;;;;11.98;89.58;99716.03;5036087;28;45539;-85
2022/11/03 00:31:25;;;;;;;;;16.00;14.75;;;;;11.98;89.69;99716.03;5037520;28;46130;-85
2022/11/03 00:33:51;;;;;;;;;13.75;12.00;;;;;11.97;89.75;99703.75;5034408;28;45497;-85
2022/11/03 00:36:28;;;;;;;;;12.25;11.75;;;;;11.96;89.66;99698.50;5034174;28;45503;-85
2022/11/03 00:38:54;;;;;;;;;18.00;14.75;;;;;11.96;90.14;99693.22;5033799;28;45251;-83
2022/11/03 00:41:20;;;;;;;;;12.75;10.50;;;;;11.99;90.21;99695.75;5033791;28;45590;-84
2022/11/03 00:43:46;;;;;;;;;12.50;12.00;;;;;11.98;89.93;99699.31;5041206;28;45349;-84
2022/11/03 00:46:12;;;;;;;;;18.75;12.00;;;;;11.97;89.73;99687.03;5038916;28;45613;-84
2022/11/03 00:48:38;;;;;;;;;18.75;14.75;;;;;11.97;90.08;99684.38;5039971;28;45393;-83
2022/11/03 00:51:10;;;;;;;;;17.75;11.75;;;;;11.96;89.72;99675.59;5035474;28;46654;-84
2022/11/03 00:53:48;;;;;;;;;16.00;14.25;;;;;11.94;89.62;99679.19;5038475;28;45230;-85
2022/11/03 00:56:17;;;;;;;;;13.50;13.00;;;;;11.91;89.65;99674.03;5034570;28;45435;-85
2022/11/03 00:58:43;;;;;;;;;0.00;0.00;;;;;11.88;89.87;99667.97;5038663;28;45710;-85
2022/11/03 01:01:14;;;;;;;;;15.75;14.00;;;;;11.88;89.71;99664.47;5028328;28;45391;-85
2022/11/03 01:06:48;;;;;;;;;13.50;12.75;;;;;11.86;89.47;99666.28;5038519;28;45516;-84
2022/11/03 01:09:12;;;;;;;;;14.50;14.25;;;;;11.78;89.83;99658.63;5035232;28;45515;-85
2022/11/03 01:11:43;;;;;;;;;14.75;13.00;;;;;11.77;90.37;99659.53;5034900;28;46236;-86
2022/11/03 01:14:10;;;;;;;;;16.50;12.25;;;;;11.75;90.04;99649.91;5037425;28;45509;-85
2022/11/03 01:16:36;;;;;;;;;15.50;13.25;;;;;11.72;90.55;99650.06;5042038;28;45454;-86
2022/11/03 01:19:02;;;;;;;;;10.25;9.00;;;;;11.71;90.28;99658.91;5035981;28;45588;-85
2022/11/03 01:21:27;;;;;;;;;12.75;11.50;;;;;11.70;89.96;99652.75;5047683;28;46429;-85
2022/11/03 01:23:53;;;;;;;;;15.00;13.50;;;;;11.68;90.00;99654.56;5035053;28;45379;-85
2022/11/03 01:26:18;;;;;;;;;13.25;12.25;;;;;11.66;90.06;99651.13;5024564;28;45551;-86
2022/11/03 01:28:45;;;;;;;;;14.00;11.50;;;;;11.64;90.17;99652.09;5032189;28;45556;-85
2022/11/03 01:31:17;;;;;;;;;13.50;11.00;;;;;11.62;90.36;99649.50;5035585;28;47367;-86
2022/11/03 01:33:46;;;;;;;;;15.50;14.25;;;;;11.59;90.62;99644.31;5049281;28;45262;-85
2022/11/03 01:36:13;;;;;;;;;15.75;12.25;;;;;11.58;90.24;99639.09;5028964;28;45231;-85
2022/11/03 01:38:38;;;;;;;;;16.00;14.25;;;;;11.56;90.02;99644.47;5040310;28;45501;-86
2022/11/03 01:41:06;;;;;;;;;13.00;12.50;;;;;11.53;90.06;99644.56;5039769;28;46234;-85
2022/11/03 01:43:32;;;;;;;;;10.25;10.25;;;;;11.49;90.39;99641.16;5034932;28;45282;-85
2022/11/03 01:46:11;;;;;;;;;15.00;14.25;;;;;11.47;90.53;99645.63;5038235;28;45598;-85
2022/11/03 01:49:05;;;;;;;;;12.25;10.00;;;;;11.45;90.60;99644.81;5035929;28;45235;-84
2022/11/03 01:51:33;;;;;;;;;14.00;9.75;;;;;11.44;90.67;99632.53;5029067;28;45426;-85
2022/11/03 01:54:03;;;;;;;;;12.00;9.75;;;;;11.43;90.62;99633.44;5027665;28;45429;-85
2022/11/03 01:56:32;;;;;;;;;12.50;12.25;;;;;11.41;90.73;99631.78;5034794;28;45460;-85
2022/11/03 01:58:58;;;;;;;;;13.75;11.25;;;;;11.38;90.59;99624.00;5038163;28;45500;-86
2022/11/03 02:01:24;;;;;;;;;12.25;12.25;;;;;11.36;90.74;99618.75;5035265;28;46927;-86
2022/11/03 02:03:55;;;;;;;;;18.25;15.50;;;;;11.35;91.02;99613.53;5037132;28;45430;-85
2022/11/03 02:06:24;;;;;;;;;14.25;12.25;;;;;11.36;90.98;99618.75;5047477;28;45316;-85
2022/11/03 02:09:12;;;;;;;;;16.50;11.50;;;;;11.35;91.00;99616.19;5031052;28;45396;-85
2022/11/03 02:14:21;;;;;;;;;14.50;11.75;;;;;11.33;91.11;99610.94;5037395;28;45404;-84
2022/11/03 02:16:58;;;;;;;;;15.00;10.75;;;;;11.33;90.96;99608.31;5040763;28;45317;-85
2022/11/03 02:19:45;;;;;;;;;15.00;12.25;;;;;11.31;91.04;99606.63;5040143;28;45239;-85
2022/11/03 02:22:45;;;;;;;;;16.00;14.00;;;;;11.28;90.98;99602.31;5029532;28;46104;-87
2022/11/03 02:25:27;;;;;;;;;16.50;14.50;;;;;11.27;91.07;99592.69;5043704;28;45346;-86
2022/11/03 02:27:52;;;;;;;;;15.75;12.50;;;;;11.25;91.22;99583.09;5039681;28;45483;-87
2022/11/03 02:30:18;;;;;;;;;11.25;9.75;;;;;11.23;91.10;99580.50;5041336;28;45389;-87
2022/11/03 02:32:56;;;;;;;;;10.00;10.00;;;;;11.22;91.07;99577.94;5033683;28;45364;-87
2022/11/03 02:35:21;;;;;;;;;9.50;9.50;;;;;11.21;91.19;99571.81;5019756;28;45440;-87
2022/11/03 02:37:51;;;;;;;;;14.00;11.50;;;;;11.19;91.07;99568.34;5023415;28;45698;-84
2022/11/03 02:40:24;;;;;;;;;15.75;11.00;;;;;11.18;90.99;99562.22;5032866;28;45346;-87
2022/11/03 02:42:52;;;;;;;;;13.50;11.25;;;;;11.16;90.84;99568.44;5034816;28;47186;-87
2022/11/03 02:45:20;;;;;;;;;14.00;11.25;;;;;11.15;90.63;99569.38;5024804;28;45377;-87
2022/11/03 02:47:48;;;;;;;;;12.75;10.25;;;;;11.09;90.58;99559.88;5035616;28;45534;-87
2022/11/03 02:50:13;;;;;;;;;11.50;11.00;;;;;11.05;90.55;99560.06;5041816;28;45420;-87
2022/11/03 02:52:43;;;;;;;;;14.00;10.50;;;;;11.02;90.59;99546.97;5032527;28;45586;-85
2022/11/03 02:55:14;;;;;;;;;14.00;11.25;;;;;10.99;90.65;99539.16;5030866;28;45312;-87
2022/11/03 02:57:48;;;;;;;;;13.75;12.50;;;;;10.96;90.92;99539.25;5025854;28;45328;-87
2022/11/03 03:00:16;;;;;;;;;10.25;10.00;;;;;10.94;91.08;99531.41;5027685;28;45367;-87
2022/11/03 03:03:05;;;;;;;;;14.50;14.00;;;;;10.93;91.09;99528.81;5051118;28;46066;-84
2022/11/03 03:05:35;;;;;;;;;13.75;13.50;;;;;10.90;91.80;99521.84;5026779;28;45371;-86
2022/11/03 03:08:08;;;;;;;;;16.75;15.75;;;;;10.90;91.69;99513.09;5024370;28;45354;-86
2022/11/03 03:10:39;;;;;;;;;8.75;8.75;;;;;10.89;91.70;99514.03;5022976;28;45516;-85
2022/11/03 03:13:08;;;;;;;;;15.00;14.00;;;;;10.90;91.65;99513.94;5047440;28;45395;-86
2022/11/03 03:15:44;;;;;;;;;14.75;13.50;;;;;10.90;91.61;99523.63;5054741;28;45253;-87
2022/11/03 03:18:22;;;;;;;;;9.75;9.25;;;;;10.90;91.69;99526.28;5043011;28;45452;-87
2022/11/03 03:21:03;;;;;;;;;15.00;14.50;;;;;10.89;92.07;99511.38;5029560;28;45209;-87
2022/11/03 03:23:35;;;;;;;;;11.75;10.50;;;;;10.88;91.73;99513.16;5043650;28;45360;-87
2022/11/03 03:26:07;;;;;;;;;16.00;12.00;;;;;10.88;91.75;99510.53;5034156;28;45305;-86
2022/11/03 03:28:42;;;;;;;;;14.75;13.00;;;;;10.89;91.72;99492.94;5052657;28;45278;-86
2022/11/03 03:31:13;;;;;;;;;11.50;11.50;;;;;10.89;91.66;99514.88;5028693;28;45971;-86
2022/11/03 03:33:40;;;;;;;;;15.00;11.75;;;;;10.89;91.62;99511.38;5022603;28;45659;-86
2022/11/03 03:36:12;;;;;;;;;16.00;13.75;;;;;10.87;91.59;99503.53;5028192;28;45442;-86
2022/11/03 03:38:45;;;;;;;;;14.25;13.00;;;;;10.84;91.63;99499.22;5032591;28;45435;-86
2022/11/03 03:41:20;;;;;;;;;11.00;10.50;;;;;10.84;91.70;99493.06;5026570;28;45390;-86
2022/11/03 03:43:50;;;;;;;;;15.00;13.50;;;;;10.84;92.01;99486.03;5029190;28;48149;-86
2022/11/03 03:46:19;;;;;;;;;15.75;15.00;;;;;10.84;92.04;99491.31;5025901;28;45423;-87
2022/11/03 03:48:45;;;;;;;;;13.25;9.00;;;;;10.85;91.78;99489.53;5048271;28;45372;-87
2022/11/03 03:51:12;;;;;;;;;11.25;11.25;;;;;10.82;91.97;99485.22;5036558;28;45571;-87
2022/11/03 03:53:38;;;;;;;;;16.25;11.25;;;;;10.82;91.80;99493.13;5036890;28;45680;-87
2022/11/03 03:56:04;;;;;;;;;12.50;12.00;;;;;10.83;91.89;99494.00;5033163;28;45322;-87
2022/11/03 03:58:30;;;;;;;;;13.50;12.25;;;;;10.81;91.77;99494.03;5052183;28;45241;-87
2022/11/03 04:00:55;;;;;;;;;11.25;11.25;;;;;10.80;91.29;99483.53;5044164;28;45460;-87
2022/11/03 04:03:23;;;;;;;;;11.25;11.25;;;;;10.79;91.56;99487.09;5036673;28;46419;-86
2022/11/03 04:05:50;;;;;;;;;11.25;11.00;;;;;10.77;91.72;99483.66;5034344;28;45302;-86
2022/11/03 04:08:16;;;;;;;;;12.50;12.50;;;;;10.75;92.02;99477.56;5027471;28;45487;-86
2022/11/03 04:22:15;;;;;;;;;13.50;11.00;;;;;10.72;91.52;99480.34;5033010;28;45339;-86
2022/11/03 04:24:24;;;;;;;;;9.75;9.75;;;;;10.63;91.77;99485.91;5029379;28;45623;-86
2022/11/03 04:26:49;;;;;;;;;12.75;10.75;;;;;10.61;91.76;99485.97;5033897;28;45400;-86
2022/11/03 04:29:15;;;;;;;;;14.00;13.00;;;;;10.62;92.21;99489.44;5034951;28;45401;-86
2022/11/03 04:31:41;;;;;;;;;13.00;12.00;;;;;10.61;92.00;99487.72;5031914;28;45397;-86
2022/11/03 04:34:11;;;;;;;;;15.50;14.00;;;;;10.60;91.92;99483.38;5027320;28;47381;-86
2022/11/03 04:36:36;;;;;;;;;14.00;14.00;;;;;10.58;91.81;99482.56;5021963;28;45301;-86
2022/11/03 04:39:15;;;;;;;;;11.50;11.50;;;;;10.55;91.86;99482.69;5029381;28;45500;-86
2022/11/03 04:41:41;;;;;;;;;12.50;11.25;;;;;10.53;91.92;99484.50;5031854;28;45317;-87
2022/11/03 04:44:13;;;;;;;;;18.75;14.50;;;;;10.49;91.85;99484.63;5025560;28;46493;-87
2022/11/03 04:46:38;;;;;;;;;13.00;11.50;;;;;10.46;91.95;99479.44;5019467;28;45524;-86
2022/11/03 04:49:09;;;;;;;;;15.75;13.75;;;;;10.43;92.22;99479.53;5031196;28;45452;-84
2022/11/03 04:51:35;;;;;;;;;13.00;12.75;;;;;10.40;92.29;99471.72;5027700;28;45230;-85
2022/11/03 04:54:22;;;;;;;;;11.75;11.00;;;;;10.39;91.68;99474.44;5031118;28;46279;-86
2022/11/03 04:56:47;;;;;;;;;13.50;13.00;;;;;10.34;92.19;99469.31;5054150;28;45480;-85
2022/11/03 04:59:15;;;;;;;;;18.50;15.25;;;;;10.34;92.09;99456.13;5034295;28;45802;-84
2022/11/03 05:01:42;;;;;;;;;15.00;14.00;;;;;10.34;92.44;99460.53;5027924;28;45498;-87
2022/11/03 05:04:12;;;;;;;;;13.50;12.75;;;;;10.34;92.32;99456.13;5031987;28;47880;-85
2022/11/03 05:06:37;;;;;;;;;14.25;12.25;;;;;10.34;92.20;99448.22;5030511;28;45424;-86
2022/11/03 05:09:19;;;;;;;;;14.00;12.25;;;;;10.33;92.34;99454.41;5043527;28;45515;-86
2022/11/03 05:11:45;;;;;;;;;12.75;12.50;;;;;10.33;92.33;99443.88;5027937;28;45271;-86
2022/11/03 05:14:18;;;;;;;;;13.75;13.00;;;;;10.33;92.25;99435.97;5021920;28;45420;-86
2022/11/03 05:16:45;;;;;;;;;10.50;10.25;;;;;10.31;92.20;99426.38;5040009;28;45367;-86
2022/11/03 05:19:24;;;;;;;;;13.75;11.50;;;;;10.30;92.20;99428.16;5027776;28;45294;-86
2022/11/03 05:21:51;;;;;;;;;14.25;11.00;;;;;10.29;92.25;99423.81;5038301;28;45473;-86
2022/11/03 05:24:19;;;;;;;;;16.00;14.00;;;;;10.29;92.07;99421.16;5043558;28;46429;-86
2022/11/03 05:26:44;;;;;;;;;12.25;12.25;;;;;10.29;92.40;99415.03;5032381;28;45360;-86
2022/11/03 05:29:15;;;;;;;;;12.50;11.75;;;;;10.31;92.16;99400.03;5039069;28;45143;-86
2022/11/03 05:31:44;;;;;;;;;12.00;9.00;;;;;10.32;92.06;99399.97;5028866;28;45569;-85
2022/11/03 05:34:30;;;;;;;;;13.00;13.00;;;;;10.35;91.84;99396.38;5047296;28;46589;-87
2022/11/03 05:37:23;;;;;;;;;13.50;10.50;;;;;10.32;91.93;99386.81;5029144;28;45309;-86
2022/11/03 05:39:50;;;;;;;;;14.75;11.75;;;;;10.30;92.08;99371.97;5022559;28;45331;-86
2022/11/03 05:42:21;;;;;;;;;12.50;9.25;;;;;10.29;92.12;99381.63;5032694;28;45398;-86
2022/11/03 05:44:47;;;;;;;;;15.00;13.00;;;;;10.29;92.13;99375.50;5029098;28;45435;-86
2022/11/03 05:47:19;;;;;;;;;11.50;11.50;;;;;10.28;91.60;99377.28;5038142;28;45321;-86
2022/11/03 05:49:44;;;;;;;;;11.75;10.00;;;;;10.28;92.10;99371.16;5029284;28;45396;-86
2022/11/03 05:52:23;;;;;;;;;12.75;12.75;;;;;10.26;91.91;99368.56;5017410;28;45317;-86
2022/11/03 05:54:50;;;;;;;;;17.25;13.25;;;;;10.25;92.39;99373.88;5021313;28;47612;-86
2022/11/03 05:57:17;;;;;;;;;11.00;10.75;;;;;10.24;91.93;99378.28;5046639;28;45237;-86
2022/11/03 05:59:44;;;;;;;;;15.25;12.25;;;;;10.23;91.72;99373.94;5032345;28;45504;-86
2022/11/03 06:02:37;;;;;;;;;12.75;11.50;;;;;10.20;92.00;99366.16;5034253;28;45317;-86
2022/11/03 06:05:21;;;;;;;;;14.50;9.25;;;;;10.17;92.08;99346.94;5021589;28;45854;-87
2022/11/03 06:07:49;;;;;;;;;10.50;10.50;;;;;10.16;92.03;99369.78;5030259;28;45230;-87
2022/11/03 06:10:25;;;;;;;;;14.00;13.75;;;;;10.15;91.80;99370.69;5045768;28;45332;-84
2022/11/03 06:12:54;;;;;;;;;13.75;12.00;;;;;10.13;92.21;99367.25;5038534;28;45325;-86
2022/11/03 06:15:28;;;;;;;;;12.50;11.00;;;;;10.14;91.94;99347.88;5026341;28;45393;-86
2022/11/03 06:17:54;;;;;;;;;12.00;10.50;;;;;10.12;92.30;99345.31;5024653;28;45941;-86
2022/11/03 06:20:21;;;;;;;;;12.00;11.75;;;;;10.14;92.30;99346.13;5042332;28;45246;-86
2022/11/03 06:22:49;;;;;;;;;12.50;11.75;;;;;10.14;92.66;99346.13;5040561;28;45314;-86
2022/11/03 06:25:23;;;;;;;;;10.25;10.00;;;;;10.16;92.59;99346.06;5031636;28;47587;-86
2022/11/03 06:27:49;;;;;;;;;8.25;8.00;;;;;10.19;92.52;99359.19;5034021;28;45484;-86
2022/11/03 06:30:21;;;;;;;;;15.00;14.00;;;;;10.22;92.14;99353.78;5025364;28;45417;-86
2022/11/03 06:32:46;;;;;;;;;16.00;14.00;;;;;10.24;92.08;99351.94;5033730;28;45536;-85
2022/11/03 06:35:13;;;;;;;;;14.75;13.25;;;;;10.25;92.07;99334.38;5032921;28;45553;-86
2022/11/03 06:37:41;;;;;;;;;15.50;13.50;;;;;10.28;91.96;99337.75;5035786;28;46033;-85
2022/11/03 06:40:09;;;;;;;;;12.75;12.00;;;;;10.32;91.94;99330.59;5028473;28;45463;-85
2022/11/03 06:42:36;;;;;;;;;17.25;15.75;;;;;10.33;91.90;99345.50;5035240;28;45378;-86
2022/11/03 06:45:13;;;;;;;;;11.50;11.50;;;;;10.36;91.71;99341.00;5038896;28;46145;-86
2022/11/03 06:47:39;;;;;;;;;18.25;13.25;;;;;10.39;91.89;99354.03;5031716;28;45590;-88
2022/11/03 06:50:37;;;;;;;;;13.50;11.75;;;;;10.43;91.26;99354.78;5028437;28;45288;-88
2022/11/03 06:53:03;;;;;;;;;14.25;13.00;;;;;10.46;91.25;99362.59;4999502;28;45381;-73
2022/11/03 06:55:30;;;;;;;;;12.00;12.00;;;;;10.51;91.37;99342.22;5029709;28;45493;-71
2022/11/03 06:58:34;;;;;;;;;14.00;14.00;;;;;10.56;91.18;99344.69;5039539;28;45302;-71
2022/11/03 07:01:11;;;;;;;;;14.50;13.00;;;;;10.60;91.13;99348.91;5030426;28;45259;-72
2022/11/03 07:03:36;;;;;;;;;7.75;7.75;;;;;10.65;90.69;99344.34;5034905;28;45474;-72
2022/11/03 07:06:18;;;;;;;;;13.25;9.25;;;;;10.68;90.46;99333.69;5030295;28;48212;-72
2022/11/03 07:08:46;;;;;;;;;16.25;14.75;;;;;10.72;90.50;99341.44;5035908;28;45475;-71
2022/11/03 07:11:26;;;;;;;;;12.50;10.00;;;;;10.75;90.19;99338.66;5034287;28;45410;-72
2022/11/03 07:13:57;;;;;;;;;12.75;11.75;;;;;10.77;89.80;99349.16;5047042;28;45454;-71
2022/11/03 07:16:40;;;;;;;;;16.75;14.25;;;;;10.80;89.57;99349.91;5026639;28;45523;-71
2022/11/03 07:19:17;;;;;;;;;15.50;12.00;;;;;10.85;89.38;99357.66;5035767;28;45505;-71
2022/11/03 07:21:45;;;;;;;;;14.00;12.50;;;;;10.87;89.34;99340.00;5032880;28;45342;-73
2022/11/03 07:24:20;;;;;;;;;16.25;12.25;;;;;10.91;89.20;99344.22;5034194;28;46097;-72
2022/11/03 07:26:45;;;;;;;;;11.25;9.50;;;;;10.96;88.92;99330.84;5030391;28;45484;-72
2022/11/03 07:29:24;;;;;;;;;12.50;12.50;;;;;11.01;88.84;99335.06;5036006;28;45489;-71
2022/11/03 07:31:51;;;;;;;;;14.50;12.75;;;;;11.07;88.76;99340.06;5032076;28;45354;-72
2022/11/03 07:34:24;;;;;;;;;15.00;14.75;;;;;11.13;88.63;99341.63;5035360;28;45365;-72
2022/11/03 07:36:51;;;;;;;;;21.00;16.50;;;;;11.18;88.27;99337.91;5027393;28;46555;-71
2022/11/03 07:39:20;;;;;;;;;15.00;14.25;;;;;11.23;88.13;99334.22;5035058;28;45563;-72
2022/11/03 07:41:46;;;;;;;;;15.75;12.00;;;;;11.27;88.14;99328.75;5035854;28;45438;-72
2022/11/03 07:44:20;;;;;;;;;18.50;17.75;;;;;11.32;87.75;99326.78;5024959;28;45483;-70
2022/11/03 07:46:47;;;;;;;;;10.00;9.50;;;;;11.36;87.40;99328.41;5032359;28;45435;-71
2022/11/03 07:49:25;;;;;;;;;17.00;15.25;;;;;11.42;87.61;99338.69;5034089;28;45453;-71
2022/11/03 07:51:51;;;;;;;;;10.00;10.00;;;;;11.45;87.25;99348.28;5032819;28;45409;-71
2022/11/03 07:54:24;;;;;;;;;15.50;14.00;;;;;11.53;87.37;99357.63;5034628;28;45661;-72
2022/11/03 07:57:12;;;;;;;;;14.75;13.25;;;;;11.62;87.03;99358.16;5028402;28;48077;-72
2022/11/03 07:59:50;;;;;;;;;14.25;11.25;;;;;11.63;86.58;99370.44;5034482;28;45401;-73
2022/11/03 08:02:16;;;;;;;;;10.75;10.75;;;;;11.66;86.88;99360.63;5035706;28;45456;-71
2022/11/03 08:04:41;;;;;;;;;15.25;13.25;;;;;11.70;86.54;99346.38;5035783;28;45755;-71
2022/11/03 08:07:06;;;;;;;;;19.67;17.67;;;;;11.78;86.59;99348.72;5033180;28;46461;-71
2022/11/03 08:09:32;;;;;;;;;18.75;18.25;;;;;11.85;86.78;99344.91;5035164;28;45361;-70
2022/11/03 08:11:57;;;;;;;;;17.75;15.75;;;;;11.94;86.71;99351.56;5035057;28;45491;-70
2022/11/03 08:14:22;;;;;;;;;12.00;10.50;;;;;12.00;85.38;99360.13;5035174;28;45508;-71
2022/11/03 08:16:48;;;;;;;;;12.75;10.75;;;;;12.01;85.42;99358.34;5031023;28;45427;-71
2022/11/03 08:19:13;;;;;;;;;14.25;11.50;;;;;12.01;85.55;99339.84;5035815;28;45487;-71
2022/11/03 08:21:39;;;;;;;;;10.50;10.00;;;;;12.03;85.61;99330.94;5024817;28;45341;-71
2022/11/03 08:24:05;;;;;;;;;14.25;11.50;;;;;12.11;85.99;99328.81;5040331;28;45348;-70
2022/11/03 08:26:30;;;;;;;;;19.75;13.75;;;;;12.21;86.07;99322.22;5029186;28;46512;-72
2022/11/03 08:28:56;;;;;;;;;16.75;14.00;;;;;12.34;85.68;99332.25;5035434;28;45381;-71
2022/11/03 08:31:21;;;;;;;;;12.50;12.50;;;;;12.44;85.41;99331.75;5037484;28;45591;-72
2022/11/03 08:33:47;;;;;;;;;12.25;12.00;;;;;12.50;85.14;99320.06;5035967;28;45367;-71
2022/11/03 08:36:12;;;;;;;;;14.25;13.50;;;;;12.55;84.60;99320.72;5024805;28;46747;-71
2022/11/03 08:38:38;;;;;;;;;13.00;11.50;;;;;12.62;84.75;99318.63;5034846;28;45503;-71
2022/11/03 08:41:03;;;;;;;;;11.25;10.50;;;;;12.69;84.63;99310.38;5031631;28;45521;-71
2022/11/03 08:43:29;;;;;;;;;13.25;13.25;;;;;12.78;84.36;99277.31;5029391;28;45447;-71
2022/11/03 08:45:54;;;;;;;;;13.25;11.75;;;;;12.87;84.12;99269.84;5032127;28;48606;-72
2022/11/03 08:48:21;;;;;;;;;11.50;10.75;;;;;12.98;84.00;99263.16;5033249;28;45516;-73
2022/11/03 08:50:49;;;;;;;;;13.75;13.75;;;;;13.07;83.66;99265.41;5033384;28;45373;-73
2022/11/03 08:53:15;;;;;;;;;14.75;13.25;;;;;13.17;83.28;99261.41;5032484;28;45519;-71
2022/11/03 08:55:41;;;;;;;;;16.50;13.50;;;;;13.26;83.04;99253.00;5032753;28;46428;-71
2022/11/03 08:58:07;;;;;;;;;13.25;12.50;;;;;13.36;82.59;99245.47;5034241;28;45470;-71
2022/11/03 09:00:32;;;;;;;;;14.50;14.00;;;;;13.40;81.51;99252.34;5032992;28;45500;-72
2022/11/03 09:02:58;;;;;;;;;16.00;15.25;;;;;13.39;81.64;99255.91;5028890;28;45432;-72
2022/11/03 09:05:23;;;;;;;;;16.00;16.00;;;;;13.38;81.37;99255.06;5034554;28;45555;-72
2022/11/03 09:07:48;;;;;;;;;6.75;6.25;;;;;13.35;80.86;99257.84;5035016;28;45357;-71
2022/11/03 09:10:14;;;;;;;;;14.75;11.75;;;;;13.31;80.85;99244.84;5033297;28;45456;-73
2022/11/03 09:12:39;;;;;;;;;16.25;15.25;;;;;13.27;80.44;99230.88;5031053;28;45526;-72
2022/11/03 09:15:05;;;;;;;;;16.25;14.25;;;;;13.19;80.58;99225.97;5033216;28;46011;-72
2022/11/03 09:17:30;;;;;;;;;13.50;13.00;;;;;13.20;80.44;99216.25;5031029;28;45934;-72
2022/11/03 09:19:56;;;;;;;;;14.75;12.00;;;;;13.31;81.07;99223.66;5026546;28;45373;-72
2022/11/03 09:22:22;;;;;;;;;15.00;12.25;;;;;13.43;80.79;99229.19;5038463;28;45477;-72
2022/11/03 09:24:48;;;;;;;;;17.00;14.50;;;;;13.50;79.91;99214.72;5034432;28;45405;-72
2022/11/03 09:27:13;;;;;;;;;13.25;8.25;;;;;13.54;80.13;99192.44;5036300;28;45539;-72
2022/11/03 09:29:38;;;;;;;;;13.25;13.00;;;;;13.59;81.24;99184.22;5047284;28;45483;-72
2022/11/03 09:32:05;;;;;;;;;11.00;11.00;;;;;13.66;80.92;99182.13;5037027;28;45506;-73
2022/11/03 09:34:30;;;;;;;;;14.25;13.50;;;;;13.78;81.42;99179.69;5034070;28;48330;-72
2022/11/03 09:36:56;;;;;;;;;15.50;15.50;;;;;13.91;80.97;99166.66;5039104;28;45790;-71
2022/11/03 09:39:21;;;;;;;;;13.25;12.75;;;;;14.03;80.95;99168.69;5027625;28;45579;-72
2022/11/03 09:41:47;;;;;;;;;14.50;12.25;;;;;14.13;80.40;99161.94;5034216;28;45512;-72
2022/11/03 09:44:13;;;;;;;;;13.00;12.50;;;;;14.24;80.49;99167.50;5039098;28;45563;-72
2022/11/03 09:46:38;;;;;;;;;13.25;11.25;;;;;14.39;80.33;99157.88;5032875;28;45450;-72
2022/11/03 09:49:05;;;;;;;;;12.50;12.50;;;;;14.51;80.28;99146.63;5034001;28;45705;-72
2022/11/03 09:51:33;;;;;;;;;21.25;14.75;;;;;14.63;79.64;99130.00;5033723;28;45455;-72
2022/11/03 09:54:03;;;;;;;;;20.25;17.00;;;;;14.71;79.46;99118.09;5032909;28;46316;-71
2022/11/03 09:56:29;;;;;;;;;30.25;24.75;;;;;14.78;78.79;99125.63;5029291;28;45421;-70
2022/11/03 09:58:55;;;;;;;;;20.75;17.25;;;;;14.87;78.20;99103.00;5038476;28;45439;-71
2022/11/03 10:01:21;;;;;;;;;16.25;11.50;;;;;14.94;78.18;99104.34;5040291;28;45545;-71
2022/11/03 10:03:46;;;;;;;;;19.00;18.00;;;;;15.03;77.84;99095.88;5034456;28;46410;-71
2022/11/03 10:06:11;;;;;;;;;21.25;16.25;;;;;15.10;77.78;99094.53;5033616;28;45539;-72
2022/11/03 10:08:40;;;;;;;;;32.00;25.25;;;;;15.20;76.95;99100.19;5033991;28;45408;-72
2022/11/03 10:11:08;;;;;;;;;17.25;16.50;;;;;15.26;76.52;99094.50;5034383;28;45559;-72
2022/11/03 10:13:38;;;;;;;;;16.50;15.50;;;;;15.31;76.03;99103.06;5046042;28;46245;-72
2022/11/03 10:16:09;;;;;;;;;14.25;14.25;;;;;15.32;75.41;99094.13;5032815;28;45427;-71
2022/11/03 10:18:35;;;;;;;;;12.00;11.50;;;;;15.28;75.40;99098.78;5037506;28;45424;-71
2022/11/03 10:21:29;;;;;;;;;17.75;15.00;;;;;15.23;75.23;99105.31;5038782;28;45500;-71
2022/11/03 10:23:55;;;;;;;;;12.25;11.00;;;;;15.18;74.85;99112.69;5031823;28;46217;-71
2022/11/03 10:26:21;;;;;;;;;13.25;12.75;;;;;15.11;75.02;99122.81;5037138;28;45400;-73
2022/11/03 10:29:08;;;;;;;;;11.25;11.25;;;;;15.01;75.49;99108.38;5037466;28;45366;-74
2022/11/03 10:31:38;;;;;;;;;16.25;14.25;;;;;14.90;75.83;99119.63;5032646;28;45453;-72
2022/11/03 10:34:22;;;;;;;;;17.25;16.50;;;;;14.82;75.60;99097.97;5037113;28;45428;-73
2022/11/03 10:36:48;;;;;;;;;13.00;12.50;;;;;14.74;75.47;99104.66;5037223;28;45462;-73
2022/11/03 10:39:29;;;;;;;;;14.00;14.00;;;;;14.66;76.08;99107.75;5035370;28;45435;-73
2022/11/03 10:41:59;;;;;;;;;18.00;14.00;;;;;14.60;76.73;99111.59;5037009;28;45520;-73
2022/11/03 10:44:27;;;;;;;;;10.50;9.25;;;;;14.53;77.00;99096.13;5036870;28;46110;-72
2022/11/03 10:47:00;;;;;;;;;12.50;12.50;;;;;14.45;77.77;99098.34;5034295;28;45438;-72
2022/11/03 10:49:37;;;;;;;;;15.25;13.00;;;;;14.37;78.53;99098.75;5031069;28;45422;-72
2022/11/03 10:52:21;;;;;;;;;11.00;9.75;;;;;14.31;79.03;99086.69;5032745;28;45422;-72
2022/11/03 10:54:48;;;;;;;;;9.50;9.50;;;;;14.26;78.45;99082.56;5036462;28;45647;-73
2022/11/03 10:57:15;;;;;;;;;13.50;12.75;;;;;14.19;79.42;99094.47;5037565;28;45442;-72
2022/11/03 10:59:42;;;;;;;;;15.50;13.25;;;;;14.13;79.91;99089.50;5035588;28;45529;-73
2022/11/03 11:02:41;;;;;;;;;12.00;12.00;;;;;14.08;80.51;99084.44;5036429;28;45331;-73
2022/11/03 11:05:20;;;;;;;;;6.50;6.00;;;;;14.03;79.99;99090.94;5013810;28;46241;-73
2022/11/03 11:07:46;;;;;;;;;7.20;7.00;;;;;14.00;79.43;99089.31;5027700;28;45532;-73
2022/11/03 11:10:12;;;;;;;;;11.25;9.75;;;;;14.03;80.60;99085.66;5036222;28;45324;-73
2022/11/03 11:12:37;;;;;;;;;12.50;10.00;;;;;14.04;81.01;99067.00;5026723;28;45274;-73
2022/11/03 11:15:36;;;;;;;;;14.75;13.00;;;;;14.04;81.60;99058.19;5036494;28;45568;-73
2022/11/03 11:18:02;;;;;;;;;15.00;12.00;;;;;14.02;81.81;99044.19;5028994;28;45482;-72
2022/11/03 11:20:34;;;;;;;;;12.00;11.75;;;;;14.01;82.02;99026.56;5038956;28;45372;-72
2022/11/03 11:23:30;;;;;;;;;17.00;12.25;;;;;13.98;82.95;99027.56;5035929;28;45608;-72
2022/11/03 11:26:07;;;;;;;;;12.00;11.00;;;;;13.96;82.75;99019.72;5035402;28;45452;-72
2022/11/03 11:28:33;;;;;;;;;11.25;11.25;;;;;13.94;82.95;99002.19;5036346;28;45322;-72
2022/11/03 11:30:58;;;;;;;;;7.75;6.00;;;;;13.92;82.63;99002.25;5028702;28;45417;-72
2022/11/03 11:33:26;;;;;;;;;17.00;14.00;;;;;13.93;83.27;99013.72;5036026;28;45490;-72
2022/11/03 11:35:52;;;;;;;;;14.25;12.50;;;;;13.92;83.18;98999.59;5036555;28;46767;-73
2022/11/03 11:38:51;;;;;;;;;13.00;11.75;;;;;13.92;82.90;98983.72;5034100;28;45405;-72
2022/11/03 11:41:17;;;;;;;;;13.75;12.50;;;;;13.90;82.92;98980.31;5031119;28;45531;-73
2022/11/03 11:43:42;;;;;;;;;12.75;11.75;;;;;13.87;83.11;98971.69;5036003;28;45560;-73
2022/11/03 11:46:23;;;;;;;;;12.50;11.75;;;;;13.81;83.32;98964.06;5023082;28;46228;-72
2022/11/03 11:49:01;;;;;;;;;22.00;21.00;;;;;13.74;84.32;98976.78;5041802;28;45450;-73
2022/11/03 11:51:26;;;;;;;;;18.00;17.25;;;;;13.68;84.55;98976.28;5035919;28;45365;-73